createdAt,value
2022-09-03T00:02:06.744Z,51896.95
2022-09-03T00:04:38.907Z,51898.55
2022-09-03T00:07:10.228Z,51880.88
2022-09-03T00:09:40.621Z,51884.49
2022-09-03T00:12:11.867Z,51888.91
2022-09-03T00:14:42.525Z,51880.07
2022-09-03T00:17:14.049Z,51900.16
2022-09-03T00:19:46.230Z,51878.06
2022-09-03T00:22:16.961Z,51887.70
2022-09-03T00:24:46.760Z,51889.71
2022-09-03T00:27:17.245Z,51890.92
2022-09-03T00:29:48.847Z,51892.13
2022-09-03T00:32:20.365Z,51889.31
2022-09-03T00:34:51.059Z,51891.72
2022-09-03T00:37:21.023Z,51880.88
2022-09-03T00:39:51.078Z,51894.54
2022-09-03T00:42:26.514Z,51896.54
2022-09-03T00:45:03.719Z,51908.60
2022-09-03T00:47:35.018Z,51911.81
2022-09-03T00:50:08.105Z,51886.90
2022-09-03T00:52:45.532Z,51904.58
2022-09-03T00:55:18.458Z,51894.13
2022-09-03T00:57:50.653Z,51896.95
2022-09-03T01:00:20.981Z,51902.17
2022-09-03T01:02:53.272Z,51892.93
2022-09-03T01:05:33.755Z,51905.79
2022-09-03T01:08:06.720Z,51894.94
2022-09-03T01:10:39.968Z,51890.92
2022-09-03T01:13:11.121Z,51893.33
2022-09-03T01:15:43.360Z,51888.51
2022-09-03T01:18:16.364Z,51886.50
2022-09-03T01:20:52.286Z,51892.93
2022-09-03T01:23:36.507Z,51914.23
2022-09-03T01:26:10.518Z,51902.57
2022-09-03T01:28:47.106Z,51909.00
2022-09-03T01:31:21.498Z,51905.38
2022-09-03T01:33:55.235Z,51904.98
2022-09-03T01:36:26.035Z,51897.75
2022-09-03T01:38:57.112Z,51888.91
2022-09-03T01:41:48.755Z,51899.36
2022-09-03T01:44:21.180Z,51906.19
2022-09-03T01:46:51.916Z,51901.77
2022-09-03T01:49:23.319Z,51907.39
2022-09-03T01:51:58.626Z,51896.54
2022-09-03T01:54:33.539Z,51912.21
2022-09-03T01:57:36.728Z,51916.24
2022-09-03T02:00:08.330Z,51928.29
2022-09-03T02:02:48.268Z,51921.46
2022-09-03T02:05:19.247Z,51924.27
2022-09-03T02:07:50.635Z,51925.48
2022-09-03T02:10:23.525Z,51908.20
2022-09-03T02:12:54.252Z,51922.26
2022-09-03T02:15:25.696Z,51909.40
2022-09-03T02:17:56.675Z,51910.61
2022-09-03T02:20:27.617Z,51925.88
2022-09-03T02:22:57.628Z,51935.52
2022-09-03T02:25:30.412Z,51922.66
2022-09-03T02:28:00.604Z,51927.48
2022-09-03T02:30:30.886Z,51931.50
2022-09-03T02:33:00.812Z,51936.73
2022-09-03T02:35:31.019Z,51911.82
2022-09-03T02:38:01.188Z,51932.71
2022-09-03T02:40:31.278Z,51944.36
2022-09-03T02:43:01.563Z,51924.27
2022-09-03T02:45:31.965Z,51922.66
2022-09-03T02:48:01.950Z,51945.57
2022-09-03T02:50:32.063Z,51921.46
2022-09-03T02:53:02.822Z,51947.98
2022-09-03T02:55:33.054Z,51925.07
2022-09-03T02:58:03.116Z,51918.24
2022-09-03T03:00:33.177Z,51916.64
2022-09-03T03:03:03.030Z,51931.11
2022-09-03T03:05:34.723Z,51927.09
2022-09-03T03:08:05.018Z,51927.89
2022-09-03T03:10:35.474Z,51911.01
2022-09-03T03:13:05.675Z,51931.91
2022-09-03T03:15:35.488Z,51935.12
2022-09-03T03:18:05.337Z,51915.83
2022-09-03T03:20:35.330Z,51923.87
2022-09-03T03:23:05.795Z,51928.29
2022-09-03T03:25:35.806Z,51926.28
2022-09-03T03:28:06.472Z,51933.91
2022-09-03T03:30:36.402Z,51933.91
2022-09-03T03:33:06.482Z,51939.54
2022-09-03T03:35:36.777Z,51919.05
2022-09-03T03:38:06.884Z,51916.23
2022-09-03T03:40:37.269Z,51936.32
2022-09-03T03:43:07.170Z,51923.07
2022-09-03T03:45:37.474Z,51937.13
2022-09-03T03:48:07.701Z,51909.00
2022-09-03T03:50:38.431Z,51920.25
2022-09-03T03:53:08.519Z,51922.26
2022-09-03T03:55:39.579Z,51924.27
2022-09-03T03:58:09.753Z,51937.13
2022-09-03T04:00:39.702Z,51906.99
2022-09-03T04:03:09.654Z,51917.04
2022-09-03T04:05:43.743Z,51924.67
2022-09-03T04:08:18.452Z,51902.57
2022-09-03T04:10:49.332Z,51906.99
2022-09-03T04:13:19.490Z,51916.24
2022-09-03T04:15:49.597Z,51917.04
2022-09-03T04:18:19.657Z,51933.91
2022-09-03T04:20:49.746Z,51901.36
2022-09-03T04:23:19.690Z,51916.24
2022-09-03T04:25:54.913Z,51902.17
2022-09-03T04:28:25.342Z,51925.48
2022-09-03T04:30:55.519Z,51923.07
2022-09-03T04:33:26.222Z,51912.62
2022-09-03T04:35:56.725Z,51909.41
2022-09-03T04:38:26.848Z,51901.36
2022-09-03T04:40:56.702Z,51906.59
2022-09-03T04:43:26.639Z,51900.16
2022-09-03T04:45:59.953Z,51893.33
2022-09-03T04:48:30.102Z,51900.56
2022-09-03T04:51:06.062Z,51892.52
2022-09-03T04:53:36.799Z,51892.93
2022-09-03T04:56:12.941Z,51882.88
2022-09-03T04:58:44.581Z,51887.71
2022-09-03T05:01:15.733Z,51884.49
2022-09-03T05:03:45.683Z,51872.04
2022-09-03T05:06:17.693Z,51902.57
2022-09-03T05:08:49.413Z,51878.46
2022-09-03T05:11:20.320Z,51892.13
2022-09-03T05:13:50.499Z,51883.68
2022-09-03T05:16:20.866Z,51867.61
2022-09-03T05:18:53.264Z,51885.70
2022-09-03T05:21:23.470Z,51861.59
2022-09-03T05:23:53.538Z,51875.65
2022-09-03T05:26:24.023Z,51877.26
2022-09-03T05:28:57.355Z,51863.20
2022-09-03T05:31:28.376Z,51864.80
2022-09-03T05:34:00.014Z,51860.38
2022-09-03T05:36:32.072Z,51840.69
2022-09-03T05:39:01.897Z,51857.57
2022-09-03T05:41:33.783Z,51831.05
2022-09-03T05:44:04.367Z,51853.15
2022-09-03T05:46:34.568Z,51838.68
2022-09-03T05:49:05.313Z,51853.15
2022-09-03T05:51:35.399Z,51836.27
2022-09-03T05:54:05.428Z,51841.49
2022-09-03T05:56:36.017Z,51841.90
2022-09-03T05:59:07.849Z,51833.05
2022-09-03T06:01:38.118Z,51817.38
2022-09-03T06:04:08.418Z,51827.83
2022-09-03T06:06:38.789Z,51800.91
2022-09-03T06:09:08.945Z,51803.32
2022-09-03T06:11:39.232Z,51803.32
2022-09-03T06:14:09.856Z,51810.15
2022-09-03T06:16:40.221Z,51787.25
2022-09-03T06:19:11.150Z,51780.42
2022-09-03T06:21:43.246Z,51779.21
2022-09-03T06:24:13.581Z,51766.76
2022-09-03T06:26:45.501Z,51773.59
2022-09-03T06:29:15.319Z,51770.77
2022-09-03T06:31:45.377Z,51767.96
2022-09-03T06:34:16.583Z,51773.19
2022-09-03T06:36:46.663Z,51753.09
2022-09-03T06:39:16.538Z,51753.09
2022-09-03T06:41:48.800Z,51756.31
2022-09-03T06:44:19.147Z,51753.10
2022-09-03T06:46:48.963Z,51749.48
2022-09-03T06:49:19.999Z,51743.45
2022-09-03T06:51:50.698Z,51731.40
2022-09-03T06:54:20.605Z,51747.87
2022-09-03T06:56:50.706Z,51752.29
2022-09-03T06:59:20.857Z,51752.29
2022-09-03T07:01:50.930Z,51747.47
2022-09-03T07:04:23.390Z,51761.13
2022-09-03T07:06:53.463Z,51744.66
2022-09-03T07:09:23.487Z,51732.20
2022-09-03T07:11:53.632Z,51733.80
2022-09-03T07:14:23.498Z,51721.35
2022-09-03T07:16:54.151Z,51723.76
2022-09-03T07:19:24.154Z,51736.22
2022-09-03T07:21:54.177Z,51729.39
2022-09-03T07:24:25.279Z,51730.99
2022-09-03T07:26:55.144Z,51734.61
2022-09-03T07:29:25.125Z,51737.42
2022-09-03T07:31:55.390Z,51739.43
2022-09-03T07:34:26.596Z,51724.97
2022-09-03T07:36:56.514Z,51730.20
2022-09-03T07:39:26.517Z,51711.71
2022-09-03T07:41:58.444Z,51720.95
2022-09-03T07:44:29.014Z,51703.27
2022-09-03T07:46:58.891Z,51710.50
2022-09-03T07:49:29.052Z,51708.09
2022-09-03T07:51:58.891Z,51702.07
2022-09-03T07:54:29.086Z,51710.91
2022-09-03T07:56:59.646Z,51695.23
2022-09-03T07:59:30.263Z,51702.87
2022-09-03T08:02:00.014Z,51690.41
2022-09-03T08:04:30.745Z,51701.66
2022-09-03T08:07:00.793Z,51681.57
2022-09-03T08:09:33.274Z,51701.66
2022-09-03T08:12:03.432Z,51687.20
2022-09-03T08:14:33.518Z,51694.03
2022-09-03T08:17:03.323Z,51702.87
2022-09-03T08:19:33.286Z,51700.86
2022-09-03T08:22:03.619Z,51693.23
2022-09-03T08:24:34.236Z,51683.18
2022-09-03T08:27:04.309Z,51687.20
2022-09-03T08:29:34.136Z,51676.75
2022-09-03T08:32:05.517Z,51666.30
2022-09-03T08:34:35.716Z,51652.64
2022-09-03T08:37:05.775Z,51671.13
2022-09-03T08:39:35.704Z,51666.30
2022-09-03T08:42:22.221Z,51659.48
2022-09-03T08:44:54.438Z,51658.27
2022-09-03T08:47:25.400Z,51651.44
2022-09-03T08:49:56.880Z,51641.79
2022-09-03T08:52:28.269Z,51669.52
2022-09-03T08:55:00.290Z,51657.06
2022-09-03T08:57:30.394Z,51652.24
2022-09-03T09:00:01.204Z,51646.21
2022-09-03T09:02:34.575Z,51630.54
2022-09-03T09:05:09.994Z,51638.58
2022-09-03T09:07:43.504Z,51626.13
2022-09-03T09:10:14.510Z,51636.17
2022-09-03T09:12:47.076Z,51637.38
2022-09-03T09:15:19.430Z,51634.96
2022-09-03T09:17:53.655Z,51622.11
2022-09-03T09:20:25.277Z,51616.08
2022-09-03T09:22:56.132Z,51618.49
2022-09-03T09:25:27.470Z,51608.04
2022-09-03T09:27:58.719Z,51608.85
2022-09-03T09:30:29.632Z,51612.87
2022-09-03T09:33:00.978Z,51595.59
2022-09-03T09:35:30.827Z,51601.21
2022-09-03T09:38:00.826Z,51583.13
2022-09-03T09:40:35.111Z,51574.70
2022-09-03T09:43:08.710Z,51559.83
2022-09-03T09:45:40.933Z,51563.45
2022-09-03T09:48:20.250Z,51560.63
2022-09-03T09:50:50.136Z,51555.41
2022-09-03T09:53:21.968Z,51571.48
2022-09-03T09:55:52.344Z,51583.13
2022-09-03T09:58:24.350Z,51594.38
2022-09-03T10:01:00.146Z,51584.34
2022-09-03T10:03:31.800Z,51600.81
2022-09-03T10:06:22.913Z,51591.57
2022-09-03T10:08:52.745Z,51614.07
2022-09-03T10:11:25.761Z,51608.85
2022-09-03T10:13:59.506Z,51604.83
2022-09-03T10:16:30.509Z,51618.09
2022-09-03T10:19:04.601Z,51614.07
2022-09-03T10:21:36.932Z,51600.01
2022-09-03T10:24:16.099Z,51597.60
2022-09-03T10:26:46.603Z,51603.62
2022-09-03T10:29:17.805Z,51595.99
2022-09-03T10:31:57.306Z,51600.01
2022-09-03T10:34:38.015Z,51608.04
2022-09-03T10:37:12.921Z,51614.07
2022-09-03T10:39:50.196Z,51602.41
2022-09-03T10:42:27.511Z,51608.45
2022-09-03T10:45:02.093Z,51605.63
2022-09-03T10:47:37.424Z,51600.81
2022-09-03T10:50:11.450Z,51581.52
2022-09-03T10:52:43.190Z,51560.63
2022-09-03T10:55:18.928Z,51559.43
2022-09-03T10:57:50.132Z,51567.46
2022-09-03T11:00:20.400Z,51568.67
2022-09-03T11:02:57.034Z,51557.82
2022-09-03T11:05:30.111Z,51562.24
2022-09-03T11:08:01.477Z,51559.02
2022-09-03T11:10:31.846Z,51573.89
2022-09-03T11:13:03.937Z,51574.29
2022-09-03T11:15:34.588Z,51583.53
2022-09-03T11:18:05.054Z,51584.74
2022-09-03T11:20:34.858Z,51571.48
2022-09-03T11:23:05.929Z,51577.91
2022-09-03T11:25:37.279Z,51580.72
2022-09-03T11:28:12.393Z,51547.37
2022-09-03T11:30:50.761Z,51569.07
2022-09-03T11:33:21.487Z,51577.51
2022-09-03T11:35:55.892Z,51585.95
2022-09-03T11:38:29.400Z,51561.43
2022-09-03T11:41:01.249Z,51598.00
2022-09-03T11:43:31.734Z,51581.12
2022-09-03T11:46:05.366Z,51597.20
2022-09-03T11:48:38.133Z,51602.42
2022-09-03T11:51:17.244Z,51592.38
2022-09-03T11:53:54.536Z,51608.04
2022-09-03T11:56:24.418Z,51593.98
2022-09-03T11:59:08.108Z,51607.64
2022-09-03T12:01:37.909Z,51615.68
2022-09-03T12:04:08.051Z,51600.01
2022-09-03T12:06:43.482Z,51608.85
2022-09-03T12:09:18.081Z,51611.66
2022-09-03T12:11:50.994Z,51614.88
2022-09-03T12:14:21.730Z,51609.65
2022-09-03T12:16:56.836Z,51612.46
2022-09-03T12:19:29.562Z,51619.29
2022-09-03T12:22:04.620Z,51631.75
2022-09-03T12:24:37.717Z,51625.32
2022-09-03T12:27:10.182Z,51618.49
2022-09-03T12:29:40.941Z,51626.53
2022-09-03T12:32:13.117Z,51620.90
2022-09-03T12:34:43.282Z,51611.26
2022-09-03T12:38:04.432Z,51614.88
2022-09-03T12:40:17.385Z,51607.24
2022-09-03T12:42:47.593Z,51625.32
2022-09-03T12:45:20.031Z,51630.54
2022-09-03T12:47:50.259Z,51625.32
2022-09-03T12:50:21.091Z,51627.33
2022-09-03T12:52:51.754Z,51638.58
2022-09-03T12:55:27.500Z,51622.51
2022-09-03T12:58:02.518Z,51632.15
2022-09-03T13:00:33.634Z,51634.96
2022-09-03T13:03:04.417Z,51642.60
2022-09-03T13:05:35.032Z,51639.79
2022-09-03T13:08:05.780Z,51647.02
2022-09-03T13:10:38.182Z,51635.37
2022-09-03T13:13:09.343Z,51642.20
2022-09-03T13:15:39.249Z,51659.07
2022-09-03T13:18:11.400Z,51650.23
2022-09-03T13:20:44.762Z,51657.06
2022-09-03T13:23:23.039Z,51646.62
2022-09-03T13:25:55.275Z,51652.64
2022-09-03T13:28:29.004Z,51652.64
2022-09-03T13:30:59.125Z,51651.04
2022-09-03T13:33:29.885Z,51660.27
2022-09-03T13:36:02.957Z,51653.85
2022-09-03T13:38:37.101Z,51644.61
2022-09-03T13:41:20.227Z,51664.70
2022-09-03T13:43:53.263Z,51655.46
2022-09-03T13:46:25.585Z,51664.29
2022-09-03T13:49:15.534Z,51656.26
2022-09-03T13:51:50.094Z,51665.10
2022-09-03T13:54:42.524Z,51669.92
2022-09-03T13:57:18.184Z,51659.07
2022-09-03T13:59:52.105Z,51651.44
2022-09-03T14:02:25.643Z,51677.15
2022-09-03T14:05:00.515Z,51661.48
2022-09-03T14:07:33.479Z,51649.02
2022-09-03T14:10:06.217Z,51669.93
2022-09-03T14:12:42.965Z,51659.88
2022-09-03T14:15:19.194Z,51667.91
2022-09-03T14:17:50.305Z,51669.52
2022-09-03T14:20:21.221Z,51660.28
2022-09-03T14:22:52.529Z,51667.91
2022-09-03T14:25:22.941Z,51674.34
2022-09-03T14:27:52.750Z,51670.73
2022-09-03T14:30:27.141Z,51689.61
2022-09-03T14:32:58.630Z,51673.94
2022-09-03T14:35:40.241Z,51683.58
2022-09-03T14:38:16.911Z,51673.94
2022-09-03T14:40:47.240Z,51674.34
2022-09-03T14:43:20.324Z,51674.34
2022-09-03T14:46:04.999Z,51670.73
2022-09-03T14:48:42.053Z,51691.62
2022-09-03T14:51:20.069Z,51676.35
2022-09-03T14:54:06.565Z,51673.54
2022-09-03T14:56:39.721Z,51677.96
2022-09-03T14:59:23.430Z,51683.18
2022-09-03T15:01:54.742Z,51682.78
2022-09-03T15:04:44.053Z,51683.98
2022-09-03T15:07:25.453Z,51688.80
2022-09-03T15:10:02.655Z,51680.37
2022-09-03T15:12:35.113Z,51679.97
2022-09-03T15:15:07.203Z,51686.80
2022-09-03T15:17:41.777Z,51655.86
2022-09-03T15:20:17.691Z,51685.19
2022-09-03T15:23:02.975Z,51684.38
2022-09-03T15:25:35.766Z,51684.38
2022-09-03T15:28:09.142Z,51675.54
2022-09-03T15:30:40.898Z,51700.86
2022-09-03T15:33:15.080Z,51692.02
2022-09-03T15:36:01.487Z,51691.21
2022-09-03T15:38:35.668Z,51697.65
2022-09-03T15:41:07.804Z,51705.68
2022-09-03T15:43:37.871Z,51682.78
2022-09-03T15:46:13.953Z,51689.61
2022-09-03T15:48:47.902Z,51698.45
2022-09-03T15:51:19.939Z,51697.64
2022-09-03T15:53:52.903Z,51702.87
2022-09-03T15:56:24.169Z,51701.66
2022-09-03T15:58:57.475Z,51700.06
2022-09-03T16:01:40.040Z,51704.07
2022-09-03T16:04:27.451Z,51710.90
2022-09-03T16:06:59.528Z,51703.27
2022-09-03T16:09:34.621Z,51706.48
2022-09-03T16:12:07.812Z,51709.30
2022-09-03T16:14:39.343Z,51697.65
2022-09-03T16:17:11.126Z,51708.09
2022-09-03T16:19:42.978Z,51712.51
2022-09-03T16:22:16.543Z,51722.96
2022-09-03T16:24:47.483Z,51716.93
2022-09-03T16:27:19.274Z,51706.49
2022-09-03T16:29:57.331Z,51715.73
2022-09-03T16:32:28.938Z,51708.49
2022-09-03T16:35:02.897Z,51703.27
2022-09-03T16:37:34.868Z,51706.08
2022-09-03T16:40:10.071Z,51726.17
2022-09-03T16:42:41.984Z,51728.18
2022-09-03T16:45:14.857Z,51725.77
2022-09-03T16:47:49.252Z,51725.77
2022-09-03T16:50:23.273Z,51716.13
2022-09-03T16:52:56.958Z,51732.20
2022-09-03T16:55:27.946Z,51733.41
2022-09-03T16:58:01.696Z,51714.12
2022-09-03T17:00:37.511Z,51738.23
2022-09-03T17:03:25.793Z,51729.38
2022-09-03T17:06:02.174Z,51739.03
2022-09-03T17:08:33.893Z,51739.84
2022-09-03T17:11:08.469Z,51744.66
2022-09-03T17:13:51.353Z,51741.04
2022-09-03T17:16:25.020Z,51751.09
2022-09-03T17:18:55.993Z,51744.66
2022-09-03T17:21:28.428Z,51743.85
2022-09-03T17:24:02.707Z,51753.09
2022-09-03T17:26:35.106Z,51757.51
2022-09-03T17:29:08.804Z,51763.54
2022-09-03T17:31:43.047Z,51763.54
2022-09-03T17:34:15.319Z,51769.57
2022-09-03T17:36:50.413Z,51754.70
2022-09-03T17:39:27.906Z,51776.00
2022-09-03T17:41:59.234Z,51773.19
2022-09-03T17:44:39.337Z,51759.12
2022-09-03T17:47:13.654Z,51774.39
2022-09-03T17:49:48.149Z,51777.61
2022-09-03T17:52:24.011Z,51781.22
2022-09-03T17:54:54.392Z,51778.41
2022-09-03T17:57:27.057Z,51793.68
2022-09-03T17:59:57.560Z,51792.48
2022-09-03T18:02:30.894Z,51803.73
2022-09-03T18:05:02.446Z,51822.21
2022-09-03T18:07:32.954Z,51825.02
2022-09-03T18:10:06.048Z,51813.77
2022-09-03T18:12:38.607Z,51820.20
2022-09-03T18:15:09.315Z,51825.82
2022-09-03T18:17:40.946Z,51833.86
2022-09-03T18:20:29.106Z,51841.50
2022-09-03T18:23:17.775Z,51827.43
2022-09-03T18:26:06.213Z,51836.27
2022-09-03T18:28:56.485Z,51848.32
2022-09-03T18:31:44.186Z,51854.35
2022-09-03T18:34:31.679Z,51849.13
2022-09-03T18:37:19.428Z,51863.20
2022-09-03T18:40:06.691Z,51859.98
2022-09-03T18:42:58.925Z,51865.20
2022-09-03T18:46:28.048Z,51871.63
2022-09-03T18:48:55.451Z,51878.06
2022-09-03T18:51:46.483Z,51868.02
2022-09-03T18:55:03.831Z,51876.86
2022-09-03T18:57:48.614Z,51886.09
2022-09-03T19:00:36.553Z,51897.35
2022-09-03T19:03:30.373Z,51910.21
2022-09-03T19:06:21.462Z,51881.27
2022-09-03T19:09:12.658Z,51900.56
2022-09-03T19:12:05.532Z,51891.73
2022-09-03T19:14:54.575Z,51890.11
2022-09-03T19:17:43.233Z,51887.30
2022-09-03T19:20:32.824Z,51896.54
2022-09-03T19:23:20.952Z,51894.13
2022-09-03T19:26:09.042Z,51901.77
2022-09-03T19:29:00.132Z,51890.92
2022-09-03T19:32:00.463Z,51918.24
2022-09-03T19:34:53.026Z,51909.80
2022-09-03T19:37:42.224Z,51920.25
2022-09-03T19:43:34.830Z,51912.62
2022-09-03T19:46:29.731Z,51913.42
2022-09-03T19:49:19.762Z,51924.67
2022-09-03T19:52:10.169Z,51924.68
2022-09-03T19:54:57.639Z,51935.12
2022-09-03T19:57:45.417Z,51945.97
2022-09-03T20:00:33.487Z,51941.15
2022-09-03T20:03:21.495Z,51945.57
2022-09-03T20:06:11.358Z,51941.95
2022-09-03T20:08:59.132Z,51933.51
2022-09-03T20:11:29.037Z,51954.01
2022-09-03T20:14:17.410Z,51960.43
2022-09-03T20:16:49.915Z,51963.65
2022-09-03T20:19:22.262Z,51951.20
2022-09-03T20:21:53.835Z,51958.83
2022-09-03T20:24:28.708Z,51962.85
2022-09-03T20:27:00.987Z,51956.42
2022-09-03T20:29:37.912Z,51968.07
2022-09-03T20:32:10.358Z,51965.66
2022-09-03T20:34:42.707Z,51967.27
2022-09-03T20:37:24.778Z,51945.57
2022-09-03T20:39:59.156Z,51966.87
2022-09-03T20:42:37.351Z,51962.85
2022-09-03T20:45:08.532Z,51962.04
2022-09-03T20:47:46.056Z,51972.49
2022-09-03T20:50:20.777Z,51986.95
2022-09-03T20:52:53.493Z,51970.88
2022-09-03T20:55:25.072Z,51973.30
2022-09-03T20:57:55.927Z,51974.10
2022-09-03T21:00:25.835Z,51971.69
2022-09-03T21:03:16.156Z,51969.27
2022-09-03T21:05:48.749Z,51960.03
2022-09-03T21:08:22.512Z,51976.91
2022-09-03T21:10:54.571Z,51972.49
2022-09-03T21:13:26.442Z,51984.14
2022-09-03T21:15:58.886Z,51968.47
2022-09-03T21:18:31.314Z,51987.36
2022-09-03T21:21:04.056Z,51979.72
2022-09-03T21:23:35.192Z,51993.79
2022-09-03T21:26:08.302Z,51983.74
2022-09-03T21:28:38.831Z,52001.42
2022-09-03T21:31:09.483Z,51978.12
2022-09-03T21:33:39.766Z,51998.61
2022-09-03T21:36:11.651Z,51992.99
2022-09-03T21:38:46.777Z,51992.98
2022-09-03T21:41:20.306Z,51992.98
2022-09-03T21:43:52.211Z,52008.26
2022-09-03T21:46:22.669Z,51996.20
2022-09-03T21:48:53.726Z,51992.18
2022-09-03T21:51:24.898Z,51990.57
2022-09-03T21:53:57.236Z,51990.98
2022-09-03T21:56:39.257Z,51994.99
2022-09-03T21:59:10.291Z,52007.85
2022-09-03T22:01:43.673Z,51990.57
2022-09-03T22:04:13.849Z,51997.41
2022-09-03T22:06:46.265Z,51994.19
2022-09-03T22:09:18.265Z,52002.23
2022-09-03T22:11:49.382Z,52008.66
2022-09-03T22:14:20.170Z,51992.98
2022-09-03T22:16:51.945Z,52003.03
2022-09-03T22:19:21.874Z,51995.40
2022-09-03T22:21:59.331Z,52020.31
2022-09-03T22:24:34.705Z,52005.04
2022-09-03T22:27:05.512Z,52007.85
2022-09-03T22:29:38.499Z,52015.49
2022-09-03T22:32:10.734Z,52013.88
2022-09-03T22:34:53.297Z,52013.48
2022-09-03T22:37:25.783Z,52000.22
2022-09-03T22:39:55.622Z,52011.87
2022-09-03T22:42:28.164Z,52014.28
2022-09-03T22:45:11.335Z,52018.70
2022-09-03T22:47:42.616Z,52004.64
2022-09-03T22:50:16.569Z,52021.92
2022-09-03T22:52:49.613Z,52021.92
2022-09-03T22:55:21.357Z,52029.95
2022-09-03T22:57:53.653Z,52025.54
2022-09-03T23:00:23.512Z,52030.76
2022-09-03T23:02:56.001Z,52037.59
2022-09-03T23:05:29.638Z,52019.10
2022-09-03T23:08:01.480Z,52038.79
2022-09-03T23:10:32.126Z,52027.95
2022-09-03T23:13:04.464Z,52022.72
2022-09-03T23:15:34.294Z,52033.17
2022-09-03T23:18:06.868Z,52035.58
2022-09-03T23:20:37.996Z,52033.57
2022-09-03T23:23:10.404Z,52033.57
2022-09-03T23:25:42.208Z,52036.38
2022-09-03T23:28:12.627Z,52008.66
2022-09-03T23:30:42.854Z,52019.51
2022-09-03T23:33:12.942Z,52033.97
2022-09-03T23:35:45.685Z,52031.16
2022-09-03T23:38:18.327Z,52040.80
2022-09-03T23:40:48.832Z,52037.99
2022-09-03T23:43:38.988Z,52031.56
2022-09-03T23:46:10.823Z,52032.37
2022-09-03T23:48:42.689Z,52025.94
2022-09-03T23:51:14.106Z,52013.08
2022-09-03T23:53:47.119Z,52023.93
2022-09-03T23:56:21.887Z,52035.58
2022-09-03T23:58:53.703Z,52023.93
